Time;durP1;ratioP1;P1;durP2;ratioP2;P2;SDS_P1;SDS_P2;PMS_P1;PMS_P2;Temp;Humidity;BMP_temperature;BMP_pressure;BME280_temperature;BME280_humidity;BME280_pressure;Samples;Min_cycle;Max_cycle;Signal;HPM_P1;HPM_P2
2022/01/07 00:02:00;;;;;;;11.77;7.97;;;5.00;59.20;;;;;;5108776;28;20252;-54
2022/01/07 00:04:26;;;;;;;16.97;8.07;;;5.10;59.00;;;;;;5106780;28;20429;-53
2022/01/07 00:06:52;;;;;;;8.00;7.20;;;5.10;58.70;;;;;;5108404;28;20436;-54
2022/01/07 00:09:18;;;;;;;14.60;7.10;;;5.20;58.60;;;;;;5108071;28;20485;-55
2022/01/07 00:11:44;;;;;;;9.83;7.50;;;5.30;58.40;;;;;;5109292;28;20950;-54
2022/01/07 00:14:10;;;;;;;9.47;7.00;;;5.30;58.30;;;;;;5109549;28;20556;-54
2022/01/07 00:16:36;;;;;;;12.30;7.07;;;5.30;58.20;;;;;;5102811;28;20440;-54
2022/01/07 00:19:01;;;;;;;8.70;7.23;;;5.30;58.20;;;;;;5105655;28;20199;-53
2022/01/07 00:21:27;;;;;;;11.33;6.53;;;5.30;58.10;;;;;;5107335;28;20680;-53
2022/01/07 00:23:52;;;;;;;8.30;6.67;;;5.20;58.30;;;;;;5107980;28;20194;-54
2022/01/07 00:26:18;;;;;;;9.83;6.90;;;5.20;58.30;;;;;;5107477;28;20623;-54
2022/01/07 00:28:44;;;;;;;10.37;6.80;;;5.10;58.20;;;;;;5106875;28;20230;-53
2022/01/07 00:31:10;;;;;;;9.67;6.87;;;5.20;58.20;;;;;;5105846;28;20226;-54
2022/01/07 00:33:36;;;;;;;8.10;5.87;;;5.20;58.00;;;;;;5105672;28;20847;-52
2022/01/07 00:36:02;;;;;;;7.53;6.03;;;5.30;57.90;;;;;;5105794;28;20262;-53
2022/01/07 00:38:29;;;;;;;8.43;6.50;;;5.30;57.60;;;;;;5105918;28;20209;-53
2022/01/07 00:40:55;;;;;;;10.43;6.70;;;5.40;57.60;;;;;;5108209;28;20433;-53
2022/01/07 00:43:21;;;;;;;10.27;6.87;;;5.30;57.40;;;;;;5103994;28;20832;-54
2022/01/07 00:45:47;;;;;;;9.40;6.90;;;5.30;57.50;;;;;;5106600;28;20447;-52
2022/01/07 00:48:12;;;;;;;9.57;6.87;;;5.30;57.60;;;;;;5104799;28;20198;-50
2022/01/07 00:50:38;;;;;;;9.27;6.40;;;5.30;57.50;;;;;;5107569;28;20222;-53
2022/01/07 00:53:04;;;;;;;10.33;6.33;;;5.30;57.40;;;;;;5105483;28;20197;-53
2022/01/07 00:55:30;;;;;;;6.33;5.73;;;5.40;57.30;;;;;;5097000;28;20226;-50
2022/01/07 00:57:56;;;;;;;6.80;6.10;;;5.40;57.20;;;;;;5103581;28;20210;-54
2022/01/07 01:00:23;;;;;;;8.87;6.97;;;5.30;57.10;;;;;;5108659;28;20203;-53
2022/01/07 01:02:50;;;;;;;9.30;6.30;;;5.30;57.10;;;;;;5106366;28;20444;-53
2022/01/07 01:05:16;;;;;;;9.73;6.63;;;5.30;57.20;;;;;;5106593;28;20424;-53
2022/01/07 01:07:43;;;;;;;7.97;7.13;;;5.30;57.10;;;;;;5108238;28;20512;-50
2022/01/07 01:10:11;;;;;;;8.37;5.73;;;5.40;57.80;;;;;;5104689;28;20844;-53
2022/01/07 01:12:39;;;;;;;8.00;6.20;;;5.40;57.20;;;;;;5106419;28;20432;-53
2022/01/07 01:15:07;;;;;;;7.30;6.00;;;5.40;56.90;;;;;;5108409;28;20858;-51
2022/01/07 01:17:33;;;;;;;7.60;5.83;;;5.30;56.70;;;;;;5106498;28;20436;-52
2022/01/07 01:19:58;;;;;;;8.40;6.37;;;5.30;56.60;;;;;;5107192;28;20493;-53
2022/01/07 01:22:24;;;;;;;10.27;7.00;;;5.30;56.50;;;;;;5103645;28;20428;-53
2022/01/07 01:24:50;;;;;;;7.70;6.13;;;5.20;56.50;;;;;;5105364;28;20791;-53
2022/01/07 01:27:15;;;;;;;8.73;6.63;;;5.20;56.80;;;;;;5100904;28;20214;-54
2022/01/07 01:29:41;;;;;;;10.83;6.80;;;5.20;56.90;;;;;;5116477;27;20246;-52
2022/01/07 01:32:07;;;;;;;8.80;6.53;;;5.10;56.60;;;;;;5105125;28;20191;-51
2022/01/07 01:34:32;;;;;;;11.70;7.10;;;4.70;56.60;;;;;;5106500;28;20198;-52
2022/01/07 01:36:58;;;;;;;8.70;6.73;;;4.30;57.70;;;;;;5104564;28;20475;-51
2022/01/07 01:39:24;;;;;;;7.20;6.07;;;4.00;58.80;;;;;;5101085;28;21673;-53
2022/01/07 01:41:50;;;;;;;9.03;6.40;;;3.90;59.50;;;;;;5102012;28;20193;-51
2022/01/07 01:44:16;;;;;;;7.20;5.67;;;3.90;59.50;;;;;;5107529;28;20565;-50
2022/01/07 01:46:42;;;;;;;7.67;5.93;;;4.10;59.40;;;;;;5105775;28;20428;-52
2022/01/07 01:49:08;;;;;;;6.50;5.33;;;4.10;58.90;;;;;;5107947;28;20301;-50
2022/01/07 01:51:34;;;;;;;6.50;5.60;;;4.10;58.70;;;;;;5104936;28;20440;-54
2022/01/07 01:54:00;;;;;;;6.93;5.57;;;4.10;58.80;;;;;;5103412;28;20428;-54
2022/01/07 01:56:26;;;;;;;6.23;5.63;;;4.20;58.80;;;;;;5103592;28;20947;-50
2022/01/07 01:58:52;;;;;;;6.80;5.60;;;4.20;58.50;;;;;;5107764;28;20501;-53
2022/01/07 02:01:17;;;;;;;6.60;6.00;;;4.10;58.50;;;;;;5105588;28;20202;-53
2022/01/07 02:03:43;;;;;;;6.97;5.63;;;4.00;58.90;;;;;;5108958;28;20214;-49
2022/01/07 02:06:09;;;;;;;6.83;6.13;;;4.00;59.10;;;;;;5103963;28;20202;-53
2022/01/07 02:08:36;;;;;;;8.00;6.50;;;4.10;58.80;;;;;;5106827;28;20194;-53
2022/01/07 02:11:03;;;;;;;7.93;6.30;;;4.00;58.90;;;;;;5106502;28;20434;-53
2022/01/07 02:13:28;;;;;;;8.67;5.80;;;4.00;58.90;;;;;;5114322;28;20427;-53
2022/01/07 02:15:54;;;;;;;7.47;6.27;;;4.00;58.70;;;;;;5109239;28;20940;-53
2022/01/07 02:18:20;;;;;;;8.10;5.73;;;4.00;58.90;;;;;;5108271;28;20286;-53
2022/01/07 02:20:47;;;;;;;7.67;5.83;;;4.10;59.00;;;;;;5110974;28;20296;-53
2022/01/07 02:23:13;;;;;;;6.67;5.73;;;4.10;58.90;;;;;;5111107;28;20186;-52
2022/01/07 02:25:38;;;;;;;7.97;6.40;;;3.80;59.30;;;;;;5110435;28;20428;-54
2022/01/07 02:28:05;;;;;;;11.57;6.40;;;3.40;61.10;;;;;;5108410;28;22440;-52
2022/01/07 02:30:31;;;;;;;6.77;5.87;;;3.40;61.80;;;;;;5107960;28;20235;-53
2022/01/07 02:32:57;;;;;;;9.73;6.60;;;3.50;61.30;;;;;;5106314;28;20432;-54
2022/01/07 02:35:27;;;;;;;6.33;5.63;;;3.60;61.00;;;;;;5106914;28;20458;-51
2022/01/07 02:37:52;;;;;;;8.30;5.77;;;3.70;60.50;;;;;;5109507;28;21943;-54
2022/01/07 02:40:18;;;;;;;6.07;5.43;;;3.60;60.70;;;;;;5110834;28;20588;-53
2022/01/07 02:42:44;;;;;;;9.17;5.40;;;3.50;60.70;;;;;;5107539;28;20361;-50
2022/01/07 02:45:11;;;;;;;7.13;5.80;;;3.70;60.80;;;;;;5111479;28;20515;-52
2022/01/07 02:47:54;;;;;;;8.73;7.83;;;3.90;60.40;;;;;;5110277;28;20565;-51
2022/01/07 02:50:33;;;;;;;8.43;6.40;;;4.10;59.70;;;;;;5111019;28;20443;-51
2022/01/07 02:53:00;;;;;;;8.40;5.30;;;4.10;59.30;;;;;;5106015;28;20465;-52
2022/01/07 02:55:26;;;;;;;13.90;5.53;;;4.00;59.80;;;;;;5106338;28;20440;-51
2022/01/07 02:57:52;;;;;;;10.03;6.80;;;4.10;59.60;;;;;;5108413;28;20444;-50
2022/01/07 03:00:19;;;;;;;8.70;5.87;;;4.20;59.50;;;;;;5109607;28;20487;-52
2022/01/07 03:02:46;;;;;;;9.33;6.53;;;4.20;59.30;;;;;;5104192;28;20199;-52
2022/01/07 03:05:12;;;;;;;8.70;5.50;;;4.20;59.40;;;;;;5106530;28;20428;-50
2022/01/07 03:07:39;;;;;;;8.43;6.20;;;4.10;59.50;;;;;;5105671;28;20449;-54
2022/01/07 03:10:06;;;;;;;10.57;6.87;;;4.00;59.70;;;;;;5102312;28;20515;-51
2022/01/07 03:12:32;;;;;;;9.13;5.57;;;4.00;59.90;;;;;;5105562;28;20428;-53
2022/01/07 03:14:58;;;;;;;6.87;5.77;;;4.00;60.10;;;;;;5111128;28;20443;-50
2022/01/07 03:17:24;;;;;;;6.30;4.90;;;4.00;60.10;;;;;;5110079;28;20444;-53
2022/01/07 03:19:50;;;;;;;7.83;5.40;;;4.00;59.70;;;;;;5111651;28;20483;-52
2022/01/07 03:22:15;;;;;;;11.50;5.57;;;3.80;60.00;;;;;;5111475;28;20266;-53
2022/01/07 03:24:41;;;;;;;6.13;5.53;;;3.70;60.60;;;;;;5110162;28;20198;-53
2022/01/07 03:27:08;;;;;;;10.20;5.80;;;3.60;61.00;;;;;;5103622;28;20270;-51
2022/01/07 03:29:34;;;;;;;6.70;5.77;;;3.60;61.40;;;;;;5098994;28;20258;-54
2022/01/07 03:32:00;;;;;;;7.27;6.57;;;3.50;61.30;;;;;;5105921;28;20528;-50
2022/01/07 03:34:26;;;;;;;7.47;5.17;;;3.70;61.70;;;;;;5106991;28;20891;-50
2022/01/07 03:36:51;;;;;;;7.90;5.83;;;3.60;61.40;;;;;;5103651;28;20194;-52
2022/01/07 03:39:17;;;;;;;8.80;6.30;;;3.50;61.60;;;;;;5101411;28;20237;-53
2022/01/07 03:41:44;;;;;;;8.30;6.20;;;3.70;62.20;;;;;;5104944;28;20201;-50
2022/01/07 03:44:10;;;;;;;12.87;6.23;;;3.70;61.30;;;;;;5110534;28;21040;-54
2022/01/07 03:46:36;;;;;;;7.80;5.93;;;3.80;61.10;;;;;;5102201;28;20424;-53
2022/01/07 03:49:02;;;;;;;10.50;7.20;;;3.80;61.20;;;;;;5109281;28;20967;-50
2022/01/07 03:51:28;;;;;;;10.43;6.00;;;3.90;61.20;;;;;;5107562;28;20273;-50
2022/01/07 03:53:53;;;;;;;9.57;6.43;;;4.00;60.80;;;;;;5111849;28;20535;-50
2022/01/07 03:56:20;;;;;;;12.03;7.53;;;4.00;60.50;;;;;;5106938;28;20248;-53
2022/01/07 03:58:47;;;;;;;9.50;5.97;;;4.00;60.60;;;;;;5103508;28;20312;-52
2022/01/07 04:01:13;;;;;;;11.17;6.23;;;4.00;60.70;;;;;;5104049;28;20467;-51
2022/01/07 04:03:38;;;;;;;7.97;6.27;;;3.80;60.80;;;;;;5111364;28;20425;-51
2022/01/07 04:06:04;;;;;;;9.47;6.27;;;3.60;61.50;;;;;;5100612;28;20424;-50
2022/01/07 04:08:29;;;;;;;8.77;6.00;;;3.70;61.70;;;;;;5109436;28;20270;-52
2022/01/07 04:10:55;;;;;;;6.77;5.43;;;3.90;61.10;;;;;;5111230;28;20232;-53
2022/01/07 04:13:21;;;;;;;10.63;6.60;;;4.00;60.70;;;;;;5104834;28;20247;-50
2022/01/07 04:15:47;;;;;;;8.70;6.80;;;3.90;60.40;;;;;;5109962;28;20225;-50
2022/01/07 04:18:12;;;;;;;8.67;6.43;;;3.80;60.30;;;;;;5106706;28;20676;-50
2022/01/07 04:20:38;;;;;;;8.97;5.97;;;3.80;60.60;;;;;;5102867;28;20573;-53
2022/01/07 04:23:07;;;;;;;8.60;6.20;;;3.80;60.40;;;;;;5107610;28;20190;-50
2022/01/07 04:25:33;;;;;;;9.10;6.77;;;3.90;60.50;;;;;;5107377;28;20195;-50
2022/01/07 04:28:08;;;;;;;8.43;5.00;;;3.90;60.20;;;;;;5105166;28;20436;-52
2022/01/07 04:30:36;;;;;;;7.77;5.30;;;4.00;59.90;;;;;;5106591;28;20848;-50
2022/01/07 04:33:03;;;;;;;8.37;5.63;;;3.90;59.60;;;;;;5101580;28;20433;-51
2022/01/07 04:35:31;;;;;;;5.27;4.77;;;3.80;60.10;;;;;;5098324;28;20436;-52
2022/01/07 04:37:57;;;;;;;10.60;6.00;;;3.90;60.00;;;;;;5095934;28;20528;-53
2022/01/07 04:40:23;;;;;;;9.77;5.50;;;4.20;59.70;;;;;;5104830;28;20590;-50
2022/01/07 04:42:49;;;;;;;8.67;5.93;;;4.40;59.10;;;;;;5109392;28;20194;-53
2022/01/07 04:45:14;;;;;;;6.97;5.37;;;4.50;58.60;;;;;;5108827;28;20432;-51
2022/01/07 04:47:41;;;;;;;8.97;5.47;;;4.60;58.50;;;;;;5108552;28;20432;-50
2022/01/07 04:50:10;;;;;;;7.13;5.07;;;4.50;58.40;;;;;;5097335;28;20197;-51
2022/01/07 04:52:38;;;;;;;11.77;6.00;;;4.50;58.40;;;;;;5110160;28;20483;-52
2022/01/07 04:55:05;;;;;;;8.30;5.57;;;4.60;58.40;;;;;;5102640;28;20424;-50
2022/01/07 04:57:31;;;;;;;6.40;5.10;;;4.70;58.30;;;;;;5110203;28;20433;-50
2022/01/07 04:59:56;;;;;;;7.57;5.27;;;4.80;58.10;;;;;;5107212;28;20476;-49
2022/01/07 05:02:22;;;;;;;8.13;5.83;;;4.70;57.80;;;;;;5109085;28;20195;-50
2022/01/07 05:04:48;;;;;;;6.93;5.93;;;4.60;58.00;;;;;;5106765;28;20547;-50
2022/01/07 05:07:15;;;;;;;9.37;6.27;;;4.60;58.10;;;;;;5108926;28;20194;-50
2022/01/07 05:09:41;;;;;;;7.23;6.07;;;4.60;58.00;;;;;;5101167;28;20262;-52
2022/01/07 05:12:07;;;;;;;10.00;5.73;;;4.70;58.00;;;;;;5107535;28;20515;-51
2022/01/07 05:14:33;;;;;;;9.03;6.07;;;4.60;57.90;;;;;;5091346;28;20589;-50
2022/01/07 05:16:59;;;;;;;9.27;5.40;;;4.70;58.10;;;;;;5101132;28;20475;-51
2022/01/07 05:19:24;;;;;;;9.63;6.03;;;4.80;58.00;;;;;;5109890;28;20229;-50
2022/01/07 05:21:50;;;;;;;8.70;5.63;;;4.90;57.90;;;;;;5102332;28;20194;-51
2022/01/07 05:24:15;;;;;;;8.47;6.53;;;4.90;57.70;;;;;;5102071;28;20193;-50
2022/01/07 05:26:42;;;;;;;9.10;6.10;;;5.00;57.50;;;;;;5105271;28;20197;-49
2022/01/07 05:29:07;;;;;;;7.67;6.20;;;5.10;57.20;;;;;;5102015;28;20218;-51
2022/01/07 05:31:33;;;;;;;8.10;6.23;;;5.10;57.10;;;;;;5104563;28;20488;-50
2022/01/07 05:33:59;;;;;;;7.73;6.73;;;5.10;57.00;;;;;;5106237;28;20243;-50
2022/01/07 05:36:24;;;;;;;9.00;6.50;;;5.20;56.90;;;;;;5101428;28;20190;-51
2022/01/07 05:38:51;;;;;;;9.93;6.57;;;5.20;56.70;;;;;;5109406;28;20495;-50
2022/01/07 05:41:17;;;;;;;10.43;6.37;;;5.00;57.10;;;;;;5103806;28;20244;-50
2022/01/07 05:43:43;;;;;;;10.57;6.63;;;5.00;57.00;;;;;;5102922;28;20440;-51
2022/01/07 05:46:13;;;;;;;10.10;6.77;;;5.00;57.00;;;;;;5110145;28;20424;-50
2022/01/07 05:48:39;;;;;;;10.80;6.20;;;4.90;56.90;;;;;;5111572;28;20439;-51
2022/01/07 05:51:05;;;;;;;7.07;6.23;;;4.90;57.00;;;;;;5111873;28;20510;-51
2022/01/07 05:53:31;;;;;;;8.37;6.50;;;5.00;57.70;;;;;;5106096;28;20957;-50
2022/01/07 05:55:56;;;;;;;6.80;5.73;;;5.00;57.40;;;;;;5112547;28;20291;-50
2022/01/07 05:58:22;;;;;;;8.37;6.37;;;5.10;57.20;;;;;;5106913;28;20646;-51
2022/01/07 06:00:48;;;;;;;10.10;6.80;;;5.00;57.10;;;;;;5112013;28;20217;-52
2022/01/07 06:03:13;;;;;;;11.73;6.83;;;5.00;57.30;;;;;;5101210;28;20256;-50
2022/01/07 06:05:39;;;;;;;9.87;7.40;;;5.00;57.20;;;;;;5099794;28;20233;-50
2022/01/07 06:08:05;;;;;;;9.70;7.27;;;4.90;57.20;;;;;;5100573;28;20921;-52
2022/01/07 06:10:30;;;;;;;10.23;6.93;;;4.40;58.60;;;;;;5109042;28;20222;-50
2022/01/07 06:12:56;;;;;;;10.17;6.80;;;4.10;59.10;;;;;;5103844;28;20239;-50
2022/01/07 06:15:22;;;;;;;10.53;7.83;;;4.10;59.70;;;;;;5113109;28;20686;-49
2022/01/07 06:17:47;;;;;;;9.90;6.43;;;4.10;59.90;;;;;;5112422;28;20208;-51
2022/01/07 06:20:14;;;;;;;12.37;8.60;;;4.30;64.40;;;;;;5100803;28;20592;-50
2022/01/07 06:22:39;;;;;;;11.33;7.73;;;4.60;65.10;;;;;;5100370;28;20633;-50
2022/01/07 06:25:05;;;;;;;10.90;8.20;;;4.60;63.80;;;;;;5106320;28;20460;-50
2022/01/07 06:27:31;;;;;;;16.80;8.40;;;4.80;61.60;;;;;;5106674;28;20191;-49
2022/01/07 06:29:57;;;;;;;12.27;8.17;;;4.90;61.00;;;;;;5108013;28;20468;-50
2022/01/07 06:32:23;;;;;;;12.27;7.80;;;4.80;60.30;;;;;;5105976;28;20433;-50
2022/01/07 06:34:50;;;;;;;8.80;6.50;;;4.70;58.90;;;;;;5107984;28;20201;-50
2022/01/07 06:37:16;;;;;;;11.47;8.30;;;4.50;58.40;;;;;;5106857;28;20493;-51
2022/01/07 06:39:41;;;;;;;10.53;7.10;;;4.00;59.20;;;;;;5111646;28;20479;-50
2022/01/07 06:42:07;;;;;;;9.90;7.00;;;3.80;59.90;;;;;;5111448;28;20208;-51
2022/01/07 06:44:33;;;;;;;9.67;7.13;;;3.60;60.50;;;;;;5108886;28;20195;-52
2022/01/07 06:46:59;;;;;;;8.80;7.07;;;3.30;61.30;;;;;;5109428;28;20187;-53
2022/01/07 06:49:25;;;;;;;10.13;7.00;;;3.20;61.70;;;;;;5109218;28;20531;-50
2022/01/07 06:51:51;;;;;;;13.23;9.20;;;3.30;62.30;;;;;;5103656;28;20218;-54
2022/01/07 06:54:17;;;;;;;10.67;7.10;;;3.40;61.50;;;;;;5104638;28;20250;-51
2022/01/07 06:56:44;;;;;;;10.63;6.97;;;3.30;61.60;;;;;;5106931;28;20432;-50
2022/01/07 06:59:12;;;;;;;9.60;5.97;;;3.30;61.20;;;;;;5105280;28;20481;-51
2022/01/07 07:01:41;;;;;;;8.80;6.80;;;3.20;61.80;;;;;;5109299;28;20435;-50
2022/01/07 07:04:07;;;;;;;9.27;6.63;;;3.30;61.70;;;;;;5105882;28;20424;-50
2022/01/07 07:06:34;;;;;;;8.80;5.50;;;3.10;60.80;;;;;;5108433;28;20455;-50
2022/01/07 07:09:00;;;;;;;7.93;5.43;;;3.10;60.70;;;;;;5110183;28;20526;-51
2022/01/07 07:11:26;;;;;;;6.43;5.03;;;3.50;60.30;;;;;;5105107;28;20433;-53
2022/01/07 07:13:52;;;;;;;6.63;5.20;;;3.50;59.20;;;;;;5104420;28;20432;-50
2022/01/07 07:16:17;;;;;;;8.27;5.90;;;3.80;59.00;;;;;;5102730;28;20195;-50
2022/01/07 07:18:43;;;;;;;5.10;4.23;;;3.80;58.50;;;;;;5111322;28;20222;-53
2022/01/07 07:21:08;;;;;;;5.80;4.73;;;3.90;58.20;;;;;;5108074;28;20282;-50
2022/01/07 07:23:34;;;;;;;6.73;4.67;;;3.70;58.00;;;;;;5109548;28;20189;-53
2022/01/07 07:26:00;;;;;;;8.63;4.93;;;3.90;58.30;;;;;;5107420;28;20265;-50
2022/01/07 07:28:25;;;;;;;6.47;4.73;;;3.90;57.90;;;;;;5104740;28;20224;-51
2022/01/07 07:30:54;;;;;;;8.93;4.80;;;3.80;57.60;;;;;;5106848;28;20661;-52
2022/01/07 07:38:37;;;;;;;5.53;4.70;;;3.90;57.90;;;;;;5100148;28;20502;-52
2022/01/07 07:41:03;;;;;;;6.13;4.67;;;4.00;57.50;;;;;;5099284;28;22554;-50
2022/01/07 07:43:29;;;;;;;8.50;5.53;;;3.90;57.20;;;;;;5098983;28;20203;-51
2022/01/07 07:45:54;;;;;;;7.37;5.40;;;3.60;57.20;;;;;;5095671;28;20440;-52
2022/01/07 07:48:20;;;;;;;8.27;4.73;;;3.50;58.10;;;;;;5099517;28;20191;-50
2022/01/07 07:50:46;;;;;;;6.67;5.10;;;3.60;58.60;;;;;;5094932;28;20202;-53
2022/01/07 07:53:12;;;;;;;6.53;5.00;;;4.00;58.00;;;;;;5102636;28;20199;-49
2022/01/07 07:55:37;;;;;;;7.63;5.00;;;4.20;57.40;;;;;;5104296;28;20187;-50
2022/01/07 07:58:03;;;;;;;8.60;6.10;;;4.30;57.30;;;;;;5097377;28;20452;-53
2022/01/07 08:00:28;;;;;;;8.03;5.80;;;4.40;56.80;;;;;;5089903;28;20257;-53
2022/01/07 08:02:54;;;;;;;8.00;5.40;;;4.40;56.50;;;;;;5095798;28;20305;-55
2022/01/07 08:05:20;;;;;;;6.80;4.40;;;4.60;57.10;;;;;;5093498;28;20194;-50
2022/01/07 08:07:45;;;;;;;7.80;4.87;;;5.20;55.20;;;;;;5093786;28;20637;-53
2022/01/07 08:10:11;;;;;;;7.70;5.73;;;5.50;54.10;;;;;;5100653;28;20187;-53
2022/01/07 08:12:53;;;;;;;8.23;6.20;;;5.80;54.20;;;;;;5088997;28;20712;-53
2022/01/07 08:18:03;;;;;;;5.47;4.83;;;5.50;53.90;;;;;;5093872;28;20543;-50
2022/01/07 08:20:29;;;;;;;10.60;6.60;;;5.20;55.10;;;;;;5096674;28;20587;-54
2022/01/07 08:22:56;;;;;;;9.50;6.43;;;4.90;56.20;;;;;;5095623;28;20194;-51
2022/01/07 08:25:23;;;;;;;7.60;5.60;;;5.00;56.60;;;;;;5105051;28;20460;-50
2022/01/07 08:27:50;;;;;;;11.77;6.87;;;5.00;56.80;;;;;;5108833;28;20432;-53
2022/01/07 08:30:25;;;;;;;7.93;5.70;;;4.80;56.40;;;;;;5106911;28;20976;-53
2022/01/07 08:35:37;;;;;;;12.07;6.33;;;4.90;57.80;;;;;;5110234;28;21155;-51
2022/01/07 08:38:03;;;;;;;6.13;5.20;;;5.00;57.70;;;;;;5104971;28;20493;-53
2022/01/07 08:40:28;;;;;;;6.07;5.20;;;5.10;57.20;;;;;;5110455;28;20492;-49
2022/01/07 08:42:54;;;;;;;8.70;5.47;;;5.20;57.30;;;;;;5098046;28;20437;-50
2022/01/07 08:45:20;;;;;;;10.60;6.20;;;5.30;57.10;;;;;;5106120;28;20199;-50
2022/01/07 08:47:45;;;;;;;8.50;5.20;;;5.40;56.90;;;;;;5096955;28;20613;-50
2022/01/07 08:50:11;;;;;;;7.07;5.83;;;5.40;56.80;;;;;;5107265;28;20247;-51
2022/01/07 08:52:37;;;;;;;9.13;6.10;;;5.40;56.70;;;;;;5092414;28;20669;-49
2022/01/07 08:55:02;;;;;;;10.27;6.70;;;5.40;56.70;;;;;;5090176;28;20274;-50
2022/01/07 08:57:28;;;;;;;11.90;6.73;;;5.40;57.00;;;;;;5101508;28;20203;-51
2022/01/07 08:59:54;;;;;;;6.83;5.50;;;5.50;56.70;;;;;;5091278;28;20820;-50
2022/01/07 09:02:19;;;;;;;7.70;6.10;;;5.60;56.30;;;;;;5110578;28;20680;-50
2022/01/07 09:04:45;;;;;;;8.97;6.10;;;5.80;56.10;;;;;;5111305;28;20237;-51
2022/01/07 09:07:10;;;;;;;9.53;6.90;;;5.90;56.00;;;;;;5107286;28;20281;-53
2022/01/07 09:09:36;;;;;;;9.03;6.07;;;6.00;55.60;;;;;;5103619;28;20190;-53
2022/01/07 09:12:02;;;;;;;11.97;6.60;;;6.10;55.60;;;;;;5099406;28;20252;-53
2022/01/07 09:14:27;;;;;;;10.50;7.20;;;6.10;55.40;;;;;;5096420;28;20248;-53
2022/01/07 09:16:53;;;;;;;8.97;6.90;;;5.70;55.50;;;;;;5107444;28;20199;-53
2022/01/07 09:19:19;;;;;;;13.17;8.50;;;5.40;56.50;;;;;;5111118;28;20214;-53
2022/01/07 09:21:45;;;;;;;10.47;7.70;;;5.30;57.20;;;;;;5094509;28;20202;-52
2022/01/07 09:24:10;;;;;;;11.60;7.70;;;5.10;57.40;;;;;;5100911;28;20432;-53
2022/01/07 09:26:36;;;;;;;8.47;6.93;;;5.30;57.70;;;;;;5105592;28;20278;-53
2022/01/07 09:29:02;;;;;;;9.40;6.27;;;5.20;57.60;;;;;;5109520;28;20230;-51
2022/01/07 09:31:28;;;;;;;11.70;7.20;;;5.20;57.80;;;;;;5093280;28;20190;-50
2022/01/07 09:33:53;;;;;;;11.97;6.80;;;5.50;57.80;;;;;;5096662;28;20498;-50
2022/01/07 09:36:19;;;;;;;8.60;6.40;;;5.60;57.20;;;;;;5104569;28;20653;-50
2022/01/07 09:38:45;;;;;;;8.07;5.90;;;5.50;57.60;;;;;;5107054;28;20284;-50
2022/01/07 09:41:11;;;;;;;9.97;6.93;;;5.40;57.60;;;;;;5097938;28;20740;-50
2022/01/07 09:43:37;;;;;;;11.37;7.80;;;5.30;57.80;;;;;;5090064;28;20600;-50
2022/01/07 09:46:02;;;;;;;13.37;7.37;;;5.20;58.10;;;;;;5095398;28;20235;-50
2022/01/07 09:48:28;;;;;;;7.93;6.30;;;5.20;58.80;;;;;;5090729;28;20248;-52
2022/01/07 09:50:54;;;;;;;10.10;6.73;;;5.00;58.30;;;;;;5098981;28;20198;-51
2022/01/07 09:53:19;;;;;;;9.00;5.97;;;5.00;58.80;;;;;;5109811;28;20186;-52
2022/01/07 09:55:45;;;;;;;8.10;6.27;;;5.10;58.30;;;;;;5104589;28;20263;-50
2022/01/07 09:58:13;;;;;;;8.53;6.60;;;5.20;58.20;;;;;;5111146;28;20195;-52
2022/01/07 10:00:44;;;;;;;9.27;7.07;;;5.10;58.80;;;;;;5109607;28;20237;-51
2022/01/07 10:03:12;;;;;;;10.47;6.70;;;5.20;58.70;;;;;;5110295;28;20518;-50
2022/01/07 10:05:42;;;;;;;7.77;6.60;;;5.00;58.90;;;;;;5105957;28;20490;-53
2022/01/07 10:08:20;;;;;;;10.20;6.40;;;5.10;59.60;;;;;;5090534;28;20438;-54
2022/01/07 10:10:45;;;;;;;8.90;6.40;;;5.30;59.40;;;;;;5095747;28;20440;-53
2022/01/07 10:13:12;;;;;;;12.07;6.30;;;5.50;58.70;;;;;;5101510;28;20427;-52
2022/01/07 10:15:39;;;;;;;10.00;6.23;;;5.70;58.10;;;;;;5095013;28;20195;-52
2022/01/07 10:18:10;;;;;;;6.50;5.30;;;5.90;57.80;;;;;;5090856;28;20791;-53
2022/01/07 10:20:38;;;;;;;10.33;6.23;;;6.00;56.90;;;;;;5102689;28;21022;-53
2022/01/07 10:23:06;;;;;;;9.60;6.53;;;6.00;56.70;;;;;;5103607;28;20440;-54
2022/01/07 10:25:38;;;;;;;10.30;6.77;;;6.10;56.70;;;;;;5094055;28;20448;-53
2022/01/07 10:28:11;;;;;;;7.67;5.53;;;6.10;56.50;;;;;;5100078;28;20443;-52
2022/01/07 10:30:51;;;;;;;10.63;6.83;;;6.30;56.30;;;;;;5095398;28;20498;-53
2022/01/07 10:33:31;;;;;;;8.60;6.10;;;6.60;56.10;;;;;;5102600;28;20800;-52
2022/01/07 10:36:07;;;;;;;7.53;6.40;;;6.50;55.60;;;;;;5103576;28;20491;-54
2022/01/07 10:38:55;;;;;;;10.40;7.43;;;6.50;55.50;;;;;;5095502;28;20451;-54
2022/01/07 10:41:21;;;;;;;11.17;6.80;;;6.40;56.00;;;;;;5108952;28;21295;-53
2022/01/07 10:43:48;;;;;;;9.63;6.50;;;6.40;56.20;;;;;;5098537;28;20468;-53
2022/01/07 10:46:27;;;;;;;10.23;7.60;;;6.50;56.90;;;;;;5102686;28;20529;-54
2022/01/07 10:48:57;;;;;;;7.80;5.20;;;6.30;56.90;;;;;;5109932;28;21172;-52
2022/01/07 10:51:28;;;;;;;8.23;6.60;;;6.40;57.50;;;;;;5106667;28;20468;-55
2022/01/07 10:53:59;;;;;;;8.40;6.17;;;6.50;57.50;;;;;;5107217;27;20581;-53
2022/01/07 10:56:40;;;;;;;6.63;5.90;;;6.70;57.20;;;;;;5101069;28;20452;-54
2022/01/07 10:59:06;;;;;;;11.07;5.90;;;6.70;57.00;;;;;;5098321;28;20487;-52
2022/01/07 11:01:56;;;;;;;8.13;6.67;;;6.60;57.50;;;;;;5102558;28;20444;-53
2022/01/07 11:04:26;;;;;;;8.70;6.80;;;6.40;57.60;;;;;;5103987;28;20845;-52
2022/01/07 11:06:53;;;;;;;8.27;6.20;;;6.10;58.80;;;;;;5098112;28;20433;-55
2022/01/07 11:09:19;;;;;;;10.13;7.97;;;6.10;59.40;;;;;;5093352;28;20523;-52
2022/01/07 11:11:46;;;;;;;6.93;5.90;;;6.10;59.60;;;;;;5097373;28;20437;-54
2022/01/07 11:14:16;;;;;;;8.50;6.60;;;6.00;59.90;;;;;;5104742;28;20493;-52
2022/01/07 11:16:42;;;;;;;8.77;6.70;;;6.10;60.60;;;;;;5105537;28;20520;-54
2022/01/07 11:19:09;;;;;;;11.00;6.20;;;5.60;62.50;;;;;;5102693;28;21048;-54
2022/01/07 11:21:35;;;;;;;7.50;6.00;;;5.40;64.70;;;;;;5098701;28;20197;-55
2022/01/07 11:24:37;;;;;;;9.30;6.77;;;5.10;65.10;;;;;;5100694;28;20562;-54
2022/01/07 11:27:14;;;;;;;8.43;6.03;;;5.00;67.00;;;;;;5101441;28;20536;-51
2022/01/07 11:30:07;;;;;;;10.63;6.87;;;5.10;67.40;;;;;;5107582;28;20468;-53
2022/01/07 11:32:37;;;;;;;8.77;5.93;;;5.10;67.40;;;;;;5101154;28;20448;-52
2022/01/07 11:35:21;;;;;;;7.60;5.23;;;5.20;67.60;;;;;;5092594;28;20801;-51
2022/01/07 11:37:58;;;;;;;8.20;6.07;;;5.00;68.30;;;;;;5099929;28;20472;-51
2022/01/07 11:40:29;;;;;;;7.47;5.73;;;5.10;69.00;;;;;;5102653;28;20890;-52
2022/01/07 11:43:18;;;;;;;11.83;6.80;;;5.20;68.70;;;;;;5102560;28;20990;-49
2022/01/07 11:45:45;;;;;;;7.00;5.10;;;4.90;69.30;;;;;;5100835;28;20436;-52
2022/01/07 11:48:24;;;;;;;13.63;6.47;;;5.10;70.30;;;;;;5102015;28;20786;-50
2022/01/07 11:50:55;;;;;;;8.93;5.90;;;4.90;69.80;;;;;;5107006;28;20491;-50
2022/01/07 11:53:25;;;;;;;10.20;6.27;;;4.80;71.30;;;;;;5106507;28;21153;-50
2022/01/07 11:55:50;;;;;;;10.13;5.67;;;4.90;71.40;;;;;;5108695;28;20853;-50
2022/01/07 11:58:17;;;;;;;9.90;6.70;;;4.50;71.10;;;;;;5098508;28;20456;-50
2022/01/07 12:00:56;;;;;;;8.20;4.83;;;4.70;71.80;;;;;;5102666;28;20308;-52
2022/01/07 12:03:43;;;;;;;12.10;6.60;;;4.90;71.10;;;;;;5110261;28;20451;-51
2022/01/07 12:06:30;;;;;;;7.17;5.67;;;5.20;70.20;;;;;;5099828;28;20436;-53
2022/01/07 12:09:06;;;;;;;9.73;6.50;;;5.20;69.80;;;;;;5103500;28;20432;-50
2022/01/07 12:11:45;;;;;;;8.57;6.13;;;5.10;68.80;;;;;;5095621;28;20522;-51
2022/01/07 12:14:15;;;;;;;11.73;6.57;;;5.40;69.20;;;;;;5108938;28;20444;-54
2022/01/07 12:16:50;;;;;;;8.30;6.17;;;5.80;67.90;;;;;;5101980;28;20444;-50
2022/01/07 12:19:23;;;;;;;7.60;6.80;;;6.00;66.90;;;;;;5110360;28;20472;-51
2022/01/07 12:21:52;;;;;;;10.07;6.17;;;6.20;66.10;;;;;;5105717;28;20485;-50
2022/01/07 12:24:21;;;;;;;9.43;6.50;;;6.40;65.40;;;;;;5105458;28;20905;-50
2022/01/07 12:27:01;;;;;;;10.40;6.73;;;6.70;64.80;;;;;;5105759;28;20436;-50
2022/01/07 12:29:31;;;;;;;7.70;5.17;;;6.50;63.80;;;;;;5107629;28;21148;-51
2022/01/07 12:31:57;;;;;;;9.10;5.73;;;6.70;63.90;;;;;;5102219;28;20438;-55
2022/01/07 12:34:31;;;;;;;7.33;5.70;;;6.80;63.40;;;;;;5106319;28;21238;-50
2022/01/07 12:36:58;;;;;;;8.07;5.70;;;6.90;62.80;;;;;;5097633;28;20432;-50
2022/01/07 12:39:27;;;;;;;7.40;5.60;;;7.00;62.50;;;;;;5103792;28;20475;-54
2022/01/07 12:41:54;;;;;;;8.30;5.90;;;6.80;62.90;;;;;;5096480;28;20440;-54
2022/01/07 12:44:19;;;;;;;7.97;5.57;;;6.80;62.60;;;;;;5101541;28;20424;-56
2022/01/07 12:46:52;;;;;;;7.93;6.30;;;6.90;62.50;;;;;;5099931;28;20452;-55
2022/01/07 12:49:17;;;;;;;6.40;4.90;;;7.00;62.40;;;;;;5096748;28;20218;-54
2022/01/07 12:51:43;;;;;;;10.37;6.77;;;6.70;61.90;;;;;;5097608;28;20568;-56
2022/01/07 12:54:11;;;;;;;9.33;7.00;;;6.70;62.80;;;;;;5099205;28;20236;-53
2022/01/07 12:56:39;;;;;;;9.00;6.80;;;6.70;62.90;;;;;;5095343;28;20203;-54
2022/01/07 12:59:18;;;;;;;11.80;7.47;;;6.80;62.90;;;;;;5101536;28;20471;-55
2022/01/07 13:01:49;;;;;;;9.17;7.30;;;6.90;62.80;;;;;;5095692;28;20445;-54
2022/01/07 13:04:21;;;;;;;7.60;6.70;;;7.00;63.00;;;;;;5104335;28;20444;-52
2022/01/07 13:06:51;;;;;;;9.50;7.10;;;7.10;62.40;;;;;;5097773;28;20433;-52
2022/01/07 13:09:25;;;;;;;11.10;7.37;;;7.20;62.20;;;;;;5096161;28;20460;-53